Main page
METAR-TAF:

METAR-TAF

Airports :

New Braunfels Regional Airport

New Braunfels, Texas, United States

latitude: 29-42-31N, longitude: 098-02-43W, elevation: 646 ft

Current weather observation

The report was made 23 minutes ago, at 14:51 UTC
Wind 5 mph from the Northwest
Temperature 50°F
Humidity 82%
Pressure 30.20 in. Hg
Visibility: 10 miles
Clear sky

METAR: KBAZ 241451Z 31004KT 10SM CLR 10/07 A3020 RMK AO2 SLP224 T01000072 51021

Time: 09:14 (15:14 UTC)


TAF: missing

Weather observations and forecasts of more than 4000 airports (METAR and TAF reports).

The available stations are represented by yellow and red dots on the map.

Hover mouse over dot to see the name of the station.

Then click to see weather observations and forecasts.

To change the map : click on the green buttons with a black cross to zoom in, on the green button with a dash to zoom out, or on the green arrows for adjacent maps.


METAR-TAF: